Time;durP1;ratioP1;P1;durP2;ratioP2;P2;SDS_P1;SDS_P2;PMS_P1;PMS_P2;Temp;Humidity;BMP_temperature;BMP_pressure;BME280_temperature;BME280_humidity;BME280_pressure;Samples;Min_cycle;Max_cycle;Signal;HPM_P1;HPM_P2
2024/01/11 00:02:22;;;;;;;30.13;18.30;;;;;;;-3.20;69.84;100512.94;4968786;28;20262;-77
2024/01/11 00:04:47;;;;;;;36.27;15.20;;;;;;;-3.21;69.83;100513.78;4965564;28;20239;-78
2024/01/11 00:07:13;;;;;;;28.10;15.93;;;;;;;-3.21;69.87;100518.09;4966502;28;20365;-78
2024/01/11 00:09:39;;;;;;;24.67;16.07;;;;;;;-3.20;69.73;100515.50;4965309;28;20738;-78
2024/01/11 00:12:05;;;;;;;22.58;16.95;;;;;;;-3.19;69.75;100518.94;4969183;28;20351;-78
2024/01/11 00:14:31;;;;;;;29.77;16.13;;;;;;;-3.21;69.85;100515.50;4970828;28;20277;-78
2024/01/11 00:16:56;;;;;;;27.47;14.37;;;;;;;-3.23;69.77;100512.06;4973381;28;20482;-78
2024/01/11 00:19:22;;;;;;;35.80;16.53;;;;;;;-3.24;70.05;100518.03;4972601;28;20223;-78
2024/01/11 00:21:47;;;;;;;31.77;16.77;;;;;;;-3.26;69.99;100517.19;4972320;28;20248;-79
2024/01/11 00:24:13;;;;;;;24.57;15.47;;;;;;;-3.29;69.73;100518.03;4972819;28;20734;-77
2024/01/11 00:26:38;;;;;;;23.30;14.13;;;;;;;-3.29;69.90;100518.03;4972385;28;20219;-78
2024/01/11 00:29:04;;;;;;;22.10;15.97;;;;;;;-3.32;69.66;100525.72;4971828;28;20226;-78
2024/01/11 00:31:29;;;;;;;24.50;15.60;;;;;;;-3.33;69.81;100517.13;4972435;28;20333;-78
2024/01/11 00:33:55;;;;;;;24.40;16.03;;;;;;;-3.41;69.62;100517.91;4971622;28;21079;-78
2024/01/11 00:36:20;;;;;;;23.13;14.03;;;;;;;-3.55;69.49;100512.66;4972881;28;20227;-78
2024/01/11 00:38:46;;;;;;;31.43;21.70;;;;;;;-3.64;69.76;100515.19;4971127;28;20496;-77
2024/01/11 00:41:11;;;;;;;24.83;16.77;;;;;;;-3.69;70.17;100520.25;4970473;28;20215;-78
2024/01/11 00:43:37;;;;;;;22.93;17.10;;;;;;;-3.72;70.25;100521.94;4971239;28;20215;-78
2024/01/11 00:46:02;;;;;;;26.93;16.03;;;;;;;-3.67;70.34;100517.69;4972414;28;20211;-78
2024/01/11 00:48:27;;;;;;;32.50;16.77;;;;;;;-3.70;70.51;100521.13;4972237;28;20670;-78
2024/01/11 00:50:53;;;;;;;26.10;15.07;;;;;;;-3.70;69.90;100522.78;4971109;28;20551;-78
2024/01/11 00:53:18;;;;;;;28.20;14.90;;;;;;;-3.75;69.80;100524.47;4970616;28;20386;-78
2024/01/11 00:55:44;;;;;;;27.53;16.97;;;;;;;-3.83;70.06;100516.72;4970847;28;20234;-78
2024/01/11 00:58:09;;;;;;;22.03;15.30;;;;;;;-3.80;70.45;100535.56;4971710;28;20649;-78
2024/01/11 01:00:34;;;;;;;17.83;12.43;;;;;;;-3.76;70.28;100525.31;4970460;28;20582;-78
2024/01/11 01:03:00;;;;;;;14.53;12.87;;;;;;;-3.74;70.38;100524.50;4970284;28;20231;-78
2024/01/11 01:05:25;;;;;;;27.80;12.63;;;;;;;-3.73;70.03;100530.47;4971346;28;20222;-78
2024/01/11 01:07:50;;;;;;;28.43;15.37;;;;;;;-3.71;70.08;100531.34;4971757;28;20963;-78
2024/01/11 01:10:16;;;;;;;23.27;15.00;;;;;;;-3.69;69.94;100537.38;4970224;28;20317;-78
2024/01/11 01:12:41;;;;;;;27.53;14.60;;;;;;;-3.69;70.10;100540.81;4969952;28;20354;-78
2024/01/11 01:15:07;;;;;;;32.77;16.77;;;;;;;-3.71;70.10;100532.22;4967809;28;20232;-79
2024/01/11 01:17:32;;;;;;;22.07;14.43;;;;;;;-3.74;70.03;100539.88;4969068;28;20592;-79
2024/01/11 01:19:58;;;;;;;21.70;14.17;;;;;;;-3.73;70.12;100531.31;4968299;28;20462;-79
2024/01/11 01:22:23;;;;;;;20.93;16.70;;;;;;;-3.71;70.11;100539.06;4970369;28;20240;-79
2024/01/11 01:24:49;;;;;;;18.83;12.87;;;;;;;-3.71;69.95;100536.50;4968185;28;20893;-78
2024/01/11 01:27:14;;;;;;;23.30;14.13;;;;;;;-3.72;69.59;100540.78;4970268;28;20220;-79
2024/01/11 01:29:39;;;;;;;22.47;13.17;;;;;;;-3.78;69.78;100544.16;4969490;28;20242;-79
2024/01/11 01:32:05;;;;;;;21.47;12.87;;;;;;;-3.83;69.69;100537.25;4969625;28;20233;-79
2024/01/11 01:34:30;;;;;;;26.50;14.17;;;;;;;-3.88;69.76;100538.91;4968551;28;20251;-79
2024/01/11 01:36:55;;;;;;;21.27;14.83;;;;;;;-3.91;70.18;100550.00;4970550;28;20233;-79
2024/01/11 01:39:21;;;;;;;28.53;20.30;;;;;;;-3.88;70.32;100544.03;4968072;28;21196;-79
2024/01/11 01:41:46;;;;;;;23.43;16.53;;;;;;;-3.85;70.37;100536.38;4969934;28;20776;-79
2024/01/11 01:44:12;;;;;;;24.47;12.83;;;;;;;-3.82;70.14;100536.38;4969100;28;20219;-79
2024/01/11 01:46:38;;;;;;;25.17;14.67;;;;;;;-3.84;70.35;100536.38;4970290;28;20266;-79
2024/01/11 01:49:04;;;;;;;18.85;12.55;;;;;;;-3.86;69.99;100537.19;4969963;28;20285;-79
2024/01/11 01:51:32;;;;;;;15.82;12.23;;;;;;;-3.91;70.08;100538.88;4969589;28;20216;-77
2024/01/11 01:53:58;;;;;;;31.42;19.00;;;;;;;-3.92;70.28;100540.56;4968044;28;20225;-76
2024/01/11 01:56:24;;;;;;;26.40;15.38;;;;;;;-3.89;70.06;100542.28;4970038;28;20429;-76
2024/01/11 01:58:52;;;;;;;29.27;16.77;;;;;;;-3.86;69.77;100550.03;4968079;28;20273;-76
2024/01/11 02:01:19;;;;;;;24.45;15.88;;;;;;;-3.87;69.80;100556.88;4970437;28;20222;-77
2024/01/11 02:03:46;;;;;;;19.23;12.85;;;;;;;-3.91;69.79;100554.28;4969691;28;20536;-76
2024/01/11 02:06:14;;;;;;;28.55;17.45;;;;;;;-3.98;69.59;100549.91;4967389;28;20864;-77
2024/01/11 02:08:42;;;;;;;31.67;21.30;;;;;;;-4.08;69.75;100559.22;4969073;28;21014;-76
2024/01/11 02:11:07;;;;;;;21.02;13.93;;;;;;;-4.21;70.06;100560.78;4969377;28;20494;-79
2024/01/11 02:13:33;;;;;;;28.10;17.40;;;;;;;-4.33;69.97;100556.34;4966134;28;20278;-79
2024/01/11 02:15:59;;;;;;;26.30;14.80;;;;;;;-4.44;69.98;100565.63;4971055;28;20247;-79
2024/01/11 02:18:24;;;;;;;23.67;14.07;;;;;;;-4.52;70.17;100562.97;4970013;28;20464;-79
2024/01/11 02:20:50;;;;;;;21.30;13.67;;;;;;;-4.59;70.49;100566.31;4969692;28;20214;-79
2024/01/11 02:23:19;;;;;;;24.93;12.70;;;;;;;-4.61;70.60;100564.56;4971187;28;20278;-79
2024/01/11 02:25:45;;;;;;;27.10;14.50;;;;;;;-4.61;70.68;100573.13;4969020;28;20254;-79
2024/01/11 02:28:11;;;;;;;23.00;15.40;;;;;;;-4.59;70.47;100573.13;4969099;28;20319;-79
2024/01/11 02:30:36;;;;;;;34.05;18.00;;;;;;;-4.57;69.84;100574.84;4969752;28;20651;-79
2024/01/11 02:33:04;;;;;;;24.10;13.80;;;;;;;-4.52;70.16;100564.66;4968362;28;20227;-79
2024/01/11 02:35:31;;;;;;;27.50;14.75;;;;;;;-4.49;70.15;100572.41;4968520;28;20309;-78
2024/01/11 02:37:57;;;;;;;24.08;15.32;;;;;;;-4.47;69.98;100571.56;4970434;28;20490;-78
2024/01/11 02:40:22;;;;;;;23.17;14.57;;;;;;;-4.43;70.08;100575.03;4969997;28;20242;-79
2024/01/11 02:42:48;;;;;;;22.50;13.60;;;;;;;-4.41;69.59;100568.22;4968688;28;20589;-78
2024/01/11 02:45:13;;;;;;;29.57;14.03;;;;;;;-4.39;69.45;100571.69;4969868;28;20231;-79
2024/01/11 02:47:39;;;;;;;25.00;14.27;;;;;;;-4.40;69.89;100564.84;4967703;28;20247;-79
2024/01/11 02:50:08;;;;;;;24.83;14.17;;;;;;;-4.42;69.48;100563.97;4969036;28;20231;-79
2024/01/11 02:52:34;;;;;;;21.80;12.85;;;;;;;-4.41;69.46;100557.97;4970644;28;20245;-79
2024/01/11 02:54:59;;;;;;;22.73;12.15;;;;;;;-4.43;69.75;100564.78;4967276;28;20227;-79
2024/01/11 02:57:25;;;;;;;20.70;11.87;;;;;;;-4.45;69.25;100571.63;4967706;28;20413;-78
2024/01/11 02:59:51;;;;;;;22.50;12.67;;;;;;;-4.45;69.81;100563.91;4968797;28;20310;-79
2024/01/11 03:02:16;;;;;;;25.17;14.02;;;;;;;-4.43;69.55;100567.34;4965659;28;20233;-79
2024/01/11 03:04:42;;;;;;;29.67;16.80;;;;;;;-4.41;69.49;100565.66;4968181;28;20235;-79
2024/01/11 03:07:07;;;;;;;24.80;14.73;;;;;;;-4.40;69.37;100562.28;4970514;28;20328;-79
2024/01/11 03:09:34;;;;;;;24.77;15.10;;;;;;;-4.39;69.47;100558.00;4967641;28;20243;-79
2024/01/11 03:11:59;;;;;;;19.48;12.32;;;;;;;-4.41;68.91;100552.00;4967945;28;20786;-79
2024/01/11 03:14:24;;;;;;;23.87;13.43;;;;;;;-4.44;68.94;100563.06;4968433;28;20231;-79
2024/01/11 03:16:50;;;;;;;20.73;12.93;;;;;;;-4.45;69.05;100554.53;4968703;28;20215;-79
2024/01/11 03:19:15;;;;;;;27.83;15.63;;;;;;;-4.44;69.16;100560.50;4968217;28;20215;-79
2024/01/11 03:21:43;;;;;;;15.30;11.03;;;;;;;-4.45;69.65;100558.78;4968639;28;20596;-79
2024/01/11 03:24:08;;;;;;;13.60;10.35;;;;;;;-4.47;69.17;100563.03;4967860;28;20634;-79
2024/01/11 03:26:34;;;;;;;17.07;11.67;;;;;;;-4.49;69.41;100563.00;4968677;28;20223;-79
2024/01/11 03:28:59;;;;;;;22.70;14.30;;;;;;;-4.48;69.56;100558.75;4968472;28;20234;-79
2024/01/11 03:31:25;;;;;;;20.33;12.03;;;;;;;-4.46;69.74;100557.91;4967052;28;20326;-79
2024/01/11 03:33:50;;;;;;;17.77;12.10;;;;;;;-4.43;69.35;100553.66;4969021;28;20574;-79
2024/01/11 03:36:24;;;;;;;20.27;12.05;;;;;;;-4.43;69.29;100554.53;4970835;28;20730;-79
2024/01/11 03:38:50;;;;;;;27.98;17.45;;;;;;;-4.41;69.69;100555.41;4966583;28;20490;-79
2024/01/11 03:41:15;;;;;;;17.70;11.27;;;;;;;-4.41;69.71;100552.84;4968316;28;20278;-79
2024/01/11 03:43:41;;;;;;;21.43;13.30;;;;;;;-4.49;69.65;100552.75;4967543;28;20834;-79
2024/01/11 03:46:06;;;;;;;20.00;11.83;;;;;;;-4.52;69.16;100557.84;4967666;28;20452;-79
2024/01/11 03:48:32;;;;;;;17.83;12.87;;;;;;;-4.54;69.55;100550.97;4967666;28;20557;-79
2024/01/11 03:50:57;;;;;;;16.70;9.77;;;;;;;-4.53;69.73;100557.84;4967959;28;20759;-79
2024/01/11 03:53:23;;;;;;;17.90;13.40;;;;;;;-4.52;69.10;100556.97;4968016;28;20297;-79
2024/01/11 03:55:48;;;;;;;22.17;13.40;;;;;;;-4.49;69.46;100564.72;4968214;28;20284;-79
2024/01/11 03:58:14;;;;;;;23.27;11.03;;;;;;;-4.50;69.50;100556.16;4963245;28;20285;-79
2024/01/11 04:00:39;;;;;;;20.20;13.67;;;;;;;-4.51;69.46;100556.13;4967828;28;20827;-79
2024/01/11 04:03:06;;;;;;;18.80;13.87;;;;;;;-4.51;69.32;100551.00;4966360;28;21062;-79
2024/01/11 04:05:32;;;;;;;22.30;11.93;;;;;;;-4.58;68.78;100551.78;4968473;28;20227;-79
2024/01/11 04:07:57;;;;;;;22.40;13.80;;;;;;;-4.64;69.47;100550.00;4967274;28;20500;-79
2024/01/11 04:10:23;;;;;;;17.57;13.00;;;;;;;-4.67;69.00;100553.38;4967093;28;21053;-79
2024/01/11 04:12:48;;;;;;;18.63;11.00;;;;;;;-4.67;69.75;100550.81;4966095;28;20223;-78
2024/01/11 04:15:14;;;;;;;15.70;10.83;;;;;;;-4.65;69.41;100549.97;4968333;28;20240;-78
2024/01/11 04:17:39;;;;;;;17.97;13.20;;;;;;;-4.64;69.35;100546.56;4968885;28;20768;-79
2024/01/11 04:20:06;;;;;;;30.57;11.97;;;;;;;-4.66;69.07;100554.25;4967095;28;20711;-79
2024/01/11 04:22:32;;;;;;;16.17;12.90;;;;;;;-4.71;69.05;100551.59;4968441;28;20756;-79
2024/01/11 04:24:57;;;;;;;16.77;11.47;;;;;;;-4.75;69.27;100548.97;4969088;28;20227;-79
2024/01/11 04:27:23;;;;;;;21.23;13.07;;;;;;;-4.78;69.48;100546.38;4968495;28;20215;-80
2024/01/11 04:29:48;;;;;;;16.67;14.97;;;;;;;-4.79;69.70;100542.94;4969272;28;20227;-80
2024/01/11 04:32:14;;;;;;;21.50;11.30;;;;;;;-4.77;69.58;100555.81;4967286;28;20235;-80
2024/01/11 04:34:39;;;;;;;23.63;14.27;;;;;;;-4.76;69.45;100552.38;4968159;28;20231;-80
2024/01/11 04:37:05;;;;;;;25.20;14.00;;;;;;;-4.78;69.26;100559.19;4968602;28;20290;-80
2024/01/11 04:39:31;;;;;;;33.30;22.37;;;;;;;-4.77;69.27;100551.53;4966868;28;20524;-80
2024/01/11 04:41:56;;;;;;;30.00;15.53;;;;;;;-4.79;69.72;100552.34;4963413;28;20521;-79
2024/01/11 04:44:21;;;;;;;22.70;16.93;;;;;;;-4.82;69.30;100548.03;4968581;28;20735;-77
2024/01/11 04:46:47;;;;;;;22.23;14.37;;;;;;;-4.87;69.63;100549.69;4966047;28;20703;-77
2024/01/11 04:49:12;;;;;;;21.17;14.63;;;;;;;-4.90;69.44;100559.88;4967165;28;20238;-77
2024/01/11 04:51:38;;;;;;;23.77;12.67;;;;;;;-4.90;69.84;100555.63;4965907;28;20270;-77
2024/01/11 04:54:03;;;;;;;24.00;13.77;;;;;;;-4.88;69.38;100559.91;4965768;28;20362;-78
2024/01/11 04:56:29;;;;;;;25.30;14.83;;;;;;;-4.90;69.59;100557.31;4965831;28;20770;-78
2024/01/11 04:58:55;;;;;;;21.00;11.93;;;;;;;-4.88;69.39;100552.25;4968606;28;20660;-78
2024/01/11 05:01:21;;;;;;;23.23;12.40;;;;;;;-4.83;69.42;100550.56;4969337;28;20294;-78
2024/01/11 05:03:47;;;;;;;26.73;13.60;;;;;;;-4.80;69.33;100550.63;4970332;28;20219;-78
2024/01/11 05:06:21;;;;;;;20.50;12.80;;;;;;;-4.78;69.35;100546.38;4969694;28;20219;-78
2024/01/11 05:08:48;;;;;;;26.17;18.65;;;;;;;-4.79;69.38;100542.94;4969275;28;20542;-78
2024/01/11 05:11:24;;;;;;;24.23;15.32;;;;;;;-4.79;69.32;100545.50;4972630;28;20219;-78
2024/01/11 05:13:50;;;;;;;21.73;12.88;;;;;;;-4.79;69.27;100552.34;4967864;28;20233;-78
2024/01/11 05:16:26;;;;;;;21.35;13.82;;;;;;;-4.80;69.62;100555.75;5029626;23;20584;-78
2024/01/11 05:18:53;;;;;;;26.08;12.80;;;;;;;-4.80;69.09;100550.63;4989300;28;21079;-78
2024/01/11 05:21:19;;;;;;;22.42;12.00;;;;;;;-4.80;69.17;100550.63;5013629;28;20217;-78
2024/01/11 05:23:45;;;;;;;22.60;14.00;;;;;;;-4.83;69.03;100546.34;5011296;28;20217;-79
2024/01/11 05:26:12;;;;;;;20.13;10.07;;;;;;;-4.83;69.22;100546.34;5006068;28;20477;-79
2024/01/11 05:28:38;;;;;;;17.50;8.93;;;;;;;-4.85;69.10;100547.16;4984557;28;20512;-78
2024/01/11 05:31:09;;;;;;;20.10;11.23;;;;;;;-4.85;69.06;100552.28;4999217;28;20456;-78
2024/01/11 05:33:34;;;;;;;21.35;10.35;;;;;;;-4.85;69.04;100548.00;4978965;28;20481;-78
2024/01/11 05:36:00;;;;;;;21.50;11.20;;;;;;;-4.85;68.93;100549.72;4996478;28;20429;-78
2024/01/11 05:38:25;;;;;;;27.45;16.02;;;;;;;-4.83;68.87;100555.69;4995271;28;20464;-78
2024/01/11 05:40:51;;;;;;;25.43;14.00;;;;;;;-4.81;68.99;100554.88;5000849;28;20213;-77
2024/01/11 05:43:16;;;;;;;16.73;11.70;;;;;;;-4.79;69.20;100558.34;4998442;28;20710;-80
2024/01/11 05:45:41;;;;;;;25.17;12.27;;;;;;;-4.78;69.31;100556.63;5000021;28;20253;-78
2024/01/11 05:48:07;;;;;;;23.33;13.53;;;;;;;-4.79;69.28;100563.47;4999989;28;20257;-78
2024/01/11 05:50:32;;;;;;;18.33;11.40;;;;;;;-4.80;69.37;100555.75;5005529;28;20321;-78
2024/01/11 05:52:58;;;;;;;17.70;9.37;;;;;;;-4.81;69.12;100559.16;5005174;28;20229;-78
2024/01/11 05:55:23;;;;;;;16.40;10.10;;;;;;;-4.83;68.95;100551.47;5001464;28;20218;-78
2024/01/11 05:57:49;;;;;;;16.90;10.20;;;;;;;-4.83;68.74;100564.28;5004145;28;20481;-78
2024/01/11 06:00:14;;;;;;;18.17;11.43;;;;;;;-4.85;69.10;100565.94;5004658;28;20215;-78
2024/01/11 06:02:40;;;;;;;18.53;11.40;;;;;;;-4.89;69.40;100566.72;5004897;28;20222;-78
2024/01/11 06:05:09;;;;;;;17.40;9.33;;;;;;;-4.88;68.68;100572.72;5002268;28;20635;-80
2024/01/11 06:07:34;;;;;;;24.85;12.07;;;;;;;-4.88;69.07;100572.72;4998979;28;20435;-78
2024/01/11 06:10:02;;;;;;;21.30;11.37;;;;;;;-4.88;68.83;100577.84;4994016;28;20448;-79
2024/01/11 06:12:28;;;;;;;33.65;18.05;;;;;;;-4.90;69.28;100572.69;4993020;28;20253;-79
2024/01/11 06:14:53;;;;;;;22.53;12.03;;;;;;;-4.91;69.20;100573.56;4995872;28;20913;-79
2024/01/11 06:17:19;;;;;;;12.83;11.50;;;;;;;-4.94;69.01;100581.16;4995691;28;20326;-78
2024/01/11 06:19:44;;;;;;;13.13;10.40;;;;;;;-5.04;68.77;100581.88;4994247;28;20215;-80
2024/01/11 06:22:09;;;;;;;18.37;11.07;;;;;;;-5.17;69.19;100581.69;4993798;28;20234;-78
2024/01/11 06:24:35;;;;;;;15.73;10.40;;;;;;;-5.28;68.60;100590.91;4993720;28;20226;-79
2024/01/11 06:27:00;;;;;;;17.37;12.43;;;;;;;-5.39;69.12;100589.88;4993327;28;20916;-78
2024/01/11 06:29:26;;;;;;;15.67;12.17;;;;;;;-5.48;69.38;100597.38;4993883;28;20818;-80
2024/01/11 06:31:51;;;;;;;19.17;11.00;;;;;;;-5.57;69.32;100596.38;4994969;28;20369;-79
2024/01/11 06:34:16;;;;;;;18.90;12.27;;;;;;;-5.59;69.59;100597.19;4993948;28;20267;-78
2024/01/11 06:36:42;;;;;;;24.10;14.20;;;;;;;-5.61;69.41;100601.44;4994579;28;20852;-80
2024/01/11 06:39:08;;;;;;;29.30;19.60;;;;;;;-5.63;70.12;100603.94;4995914;28;20451;-80
2024/01/11 06:41:34;;;;;;;24.83;14.73;;;;;;;-5.66;69.78;100601.34;4996208;28;20293;-79
2024/01/11 06:43:59;;;;;;;23.13;15.13;;;;;;;-5.67;70.26;100602.19;4996686;28;20218;-78
2024/01/11 06:46:25;;;;;;;21.27;13.77;;;;;;;-5.70;69.72;100604.66;4977439;28;20268;-79
2024/01/11 06:48:50;;;;;;;16.53;11.53;;;;;;;-5.74;69.83;100605.47;4980206;28;20214;-79
2024/01/11 06:51:16;;;;;;;21.07;10.67;;;;;;;-5.73;69.93;100608.88;4995529;28;20234;-79
2024/01/11 06:53:42;;;;;;;21.15;10.38;;;;;;;-5.69;69.89;100605.56;4992394;28;20214;-79
2024/01/11 06:56:19;;;;;;;24.63;13.57;;;;;;;-5.63;69.28;100611.63;4995267;28;20223;-79
2024/01/11 06:58:45;;;;;;;19.30;10.27;;;;;;;-5.58;69.53;100614.28;4994890;28;20263;-80
2024/01/11 07:01:12;;;;;;;20.75;13.85;;;;;;;-5.55;69.85;100614.34;4988326;28;20690;-80
2024/01/11 07:03:38;;;;;;;18.85;11.63;;;;;;;-5.50;69.30;100614.44;4993100;28;20288;-80
2024/01/11 07:06:04;;;;;;;22.75;10.63;;;;;;;-5.48;69.19;100610.16;4994496;28;20328;-80
2024/01/11 07:08:30;;;;;;;35.03;18.10;;;;;;;-5.44;69.42;100611.97;4992659;28;20480;-79
2024/01/11 07:10:56;;;;;;;19.45;11.85;;;;;;;-5.43;68.93;100613.69;4992659;28;20234;-79
2024/01/11 07:13:22;;;;;;;23.95;13.77;;;;;;;-5.43;69.22;100613.69;4975729;28;20258;-81
2024/01/11 07:15:48;;;;;;;20.20;11.10;;;;;;;-5.40;68.99;100619.72;4993684;28;20287;-80
2024/01/11 07:18:14;;;;;;;26.57;14.90;;;;;;;-5.36;69.12;100618.06;4995319;28;20541;-78
2024/01/11 07:20:40;;;;;;;16.13;11.65;;;;;;;-5.40;69.18;100614.63;4995732;28;20229;-79
2024/01/11 07:23:05;;;;;;;23.60;11.67;;;;;;;-5.39;68.91;100625.72;4992369;28;20218;-80
2024/01/11 07:25:31;;;;;;;19.60;12.20;;;;;;;-5.37;69.06;100624.03;4993496;28;20564;-79
2024/01/11 07:27:57;;;;;;;21.85;14.13;;;;;;;-5.35;68.98;100628.34;4994287;28;21261;-80
2024/01/11 07:30:22;;;;;;;28.20;14.20;;;;;;;-5.30;68.72;100619.88;4993970;28;20245;-79
2024/01/11 07:32:47;;;;;;;21.87;12.57;;;;;;;-5.27;68.88;100625.91;4991836;28;20226;-79
2024/01/11 07:35:14;;;;;;;21.60;12.90;;;;;;;-5.27;69.11;100623.34;4994371;28;20873;-78
2024/01/11 07:37:39;;;;;;;17.95;12.15;;;;;;;-5.24;69.09;100636.22;4975485;28;20550;-78
2024/01/11 07:40:11;;;;;;;23.13;12.53;;;;;;;-5.20;68.59;100634.56;4991313;28;20223;-80
2024/01/11 07:42:38;;;;;;;25.88;14.60;;;;;;;-5.20;68.55;100638.00;4993948;28;20946;-78
2024/01/11 07:45:05;;;;;;;22.58;13.23;;;;;;;-5.24;68.59;100633.66;4989584;28;20678;-79
2024/01/11 07:47:31;;;;;;;19.23;11.40;;;;;;;-5.27;68.35;100637.84;4993888;28;20217;-79
2024/01/11 07:49:56;;;;;;;25.80;13.60;;;;;;;-5.32;68.32;100642.88;4992901;28;20231;-78
2024/01/11 07:52:22;;;;;;;21.63;11.83;;;;;;;-5.37;68.87;100647.94;4993034;28;20246;-79
2024/01/11 07:54:47;;;;;;;20.50;13.30;;;;;;;-5.41;68.91;100640.19;4991081;28;20369;-79
2024/01/11 07:57:13;;;;;;;16.77;9.80;;;;;;;-5.46;68.87;100641.78;4993784;28;20587;-79
2024/01/11 07:59:39;;;;;;;23.70;12.63;;;;;;;-5.49;68.76;100645.16;4993503;28;20222;-80
2024/01/11 08:02:05;;;;;;;25.33;13.60;;;;;;;-5.50;68.72;100645.16;4989551;28;20798;-79
2024/01/11 08:04:31;;;;;;;23.40;12.70;;;;;;;-5.49;68.86;100649.41;4989174;28;20222;-79
2024/01/11 08:06:59;;;;;;;30.57;17.90;;;;;;;-5.46;68.73;100662.28;4991955;28;20539;-79
2024/01/11 08:09:25;;;;;;;33.80;21.60;;;;;;;-5.44;69.23;100664.03;4993500;28;20513;-80
2024/01/11 08:11:52;;;;;;;24.50;17.10;;;;;;;-5.41;69.45;100663.22;4994869;28;20218;-79
2024/01/11 08:14:18;;;;;;;15.75;13.18;;;;;;;-5.30;69.29;100671.09;4992133;28;20222;-79
2024/01/11 08:16:43;;;;;;;19.90;12.77;;;;;;;-5.24;68.68;100664.41;4994638;28;20247;-79
2024/01/11 08:19:10;;;;;;;22.93;13.27;;;;;;;-5.17;68.61;100668.78;4995892;28;20215;-79
2024/01/11 08:21:35;;;;;;;17.38;13.52;;;;;;;-5.11;68.55;100674.00;4996920;28;20222;-79
2024/01/11 08:24:02;;;;;;;23.13;13.07;;;;;;;-5.00;68.61;100673.31;4993628;28;20287;-80
2024/01/11 08:26:28;;;;;;;22.63;11.32;;;;;;;-4.93;68.05;100672.59;4977922;28;20226;-79
2024/01/11 08:28:53;;;;;;;27.20;16.03;;;;;;;-4.88;67.53;100676.09;4995321;28;20281;-79
2024/01/11 08:31:19;;;;;;;22.40;14.13;;;;;;;-4.85;67.62;100667.59;4996931;28;20789;-80
2024/01/11 08:33:45;;;;;;;25.30;17.00;;;;;;;-4.83;67.74;100677.03;4995169;28;20218;-80
2024/01/11 08:36:11;;;;;;;33.63;20.33;;;;;;;-4.79;67.38;100671.09;4995789;28;20562;-79
2024/01/11 08:38:36;;;;;;;46.58;28.50;;;;;;;-4.74;67.63;100678.88;4994364;28;20497;-78
2024/01/11 08:41:03;;;;;;;39.70;20.13;;;;;;;-4.72;67.65;100675.50;4997388;28;20249;-80
2024/01/11 08:43:28;;;;;;;30.58;16.80;;;;;;;-4.68;67.51;100682.38;4998845;28;20288;-78
2024/01/11 08:45:54;;;;;;;27.43;16.03;;;;;;;-4.60;67.90;100677.38;4997062;28;20231;-78
2024/01/11 08:48:19;;;;;;;18.17;12.53;;;;;;;-4.51;67.26;100672.41;4996757;28;20202;-78
2024/01/11 08:50:45;;;;;;;23.13;14.20;;;;;;;-4.39;67.55;100678.53;4988074;28;20313;-79
2024/01/11 08:53:10;;;;;;;16.83;10.47;;;;;;;-4.12;67.26;100676.34;4994626;28;20285;-79
2024/01/11 08:55:35;;;;;;;23.90;11.60;;;;;;;-3.46;66.88;100674.53;4994650;28;20457;-79
2024/01/11 08:58:01;;;;;;;14.97;11.47;;;;;;;-2.68;65.89;100669.25;4995548;28;20211;-79
2024/01/11 09:00:27;;;;;;;15.30;9.90;;;;;;;-1.87;64.51;100664.56;4979347;28;20226;-79
2024/01/11 09:02:52;;;;;;;17.60;11.27;;;;;;;-1.20;62.96;100666.44;4992548;28;20230;-79
2024/01/11 09:05:17;;;;;;;14.93;8.60;;;;;;;-0.72;62.16;100666.47;5004270;28;20227;-78
2024/01/11 09:07:43;;;;;;;23.53;12.50;;;;;;;-0.25;61.52;100653.47;4990985;28;20676;-79
2024/01/11 09:10:09;;;;;;;23.70;13.00;;;;;;;0.29;60.64;100662.75;5009920;28;20212;-79
2024/01/11 09:12:36;;;;;;;13.97;10.60;;;;;;;0.77;59.63;100663.38;5012117;28;20217;-79
2024/01/11 09:15:01;;;;;;;17.73;11.00;;;;;;;1.09;58.66;100663.13;5010399;28;20229;-79
2024/01/11 09:17:26;;;;;;;25.57;14.90;;;;;;;1.43;58.16;100666.31;4994240;28;20262;-79
2024/01/11 09:19:52;;;;;;;20.57;12.80;;;;;;;1.70;57.54;100662.56;4997136;28;20209;-79
2024/01/11 09:22:17;;;;;;;22.60;12.20;;;;;;;2.04;56.78;100663.94;4999125;28;20194;-79
2024/01/11 09:24:43;;;;;;;21.77;11.70;;;;;;;2.27;56.37;100655.84;4997407;28;20835;-79
2024/01/11 09:27:08;;;;;;;17.83;13.60;;;;;;;2.25;56.35;100652.44;5000430;28;20215;-79
2024/01/11 09:29:34;;;;;;;24.17;14.40;;;;;;;1.84;56.51;100661.56;4997068;28;20253;-79
2024/01/11 09:31:59;;;;;;;27.50;13.33;;;;;;;1.46;57.23;100670.56;4999908;28;20226;-79
2024/01/11 09:34:25;;;;;;;20.20;13.10;;;;;;;1.13;57.56;100669.13;4995938;28;20248;-79
2024/01/11 09:36:50;;;;;;;25.63;14.37;;;;;;;0.94;57.95;100673.59;4995932;28;20669;-79
2024/01/11 09:39:16;;;;;;;33.40;23.27;;;;;;;0.82;57.96;100682.28;4993587;28;20483;-79
2024/01/11 09:41:51;;;;;;;25.43;18.13;;;;;;;0.63;58.44;100677.22;4997340;28;20226;-79
2024/01/11 09:44:18;;;;;;;35.30;18.02;;;;;;;0.48;58.50;100679.91;4996770;28;20580;-78
2024/01/11 09:46:43;;;;;;;29.23;16.63;;;;;;;0.29;58.78;100694.63;4994493;28;20584;-79
2024/01/11 09:49:10;;;;;;;24.63;14.30;;;;;;;0.23;58.77;100692.06;4993640;28;20221;-78
2024/01/11 09:51:38;;;;;;;21.40;14.10;;;;;;;0.27;58.40;100692.91;4994565;28;20596;-75
2024/01/11 09:54:04;;;;;;;26.10;17.15;;;;;;;0.29;58.22;100691.19;4992251;28;20269;-78
2024/01/11 09:56:30;;;;;;;25.00;16.02;;;;;;;0.32;58.39;100707.53;4994171;28;20222;-78
2024/01/11 09:58:55;;;;;;;25.37;16.00;;;;;;;0.34;58.06;100704.94;4992817;28;20663;-78
2024/01/11 10:01:23;;;;;;;30.00;17.33;;;;;;;0.32;58.04;100714.44;4995761;28;20306;-80
2024/01/11 10:03:48;;;;;;;27.08;15.15;;;;;;;0.18;58.40;100704.16;4995936;28;20277;-79
2024/01/11 10:06:15;;;;;;;28.33;14.77;;;;;;;-0.07;58.80;100695.63;4994020;28;20238;-79
2024/01/11 10:08:41;;;;;;;26.90;19.27;;;;;;;-0.17;59.54;100696.50;4991796;28;20555;-78
2024/01/11 10:11:07;;;;;;;39.70;19.20;;;;;;;0.24;58.46;100701.53;4993713;28;20670;-79
2024/01/11 10:13:33;;;;;;;38.45;18.23;;;;;;;0.57;57.44;100694.53;4995358;28;20222;-78
2024/01/11 10:16:15;;;;;;;27.83;19.37;;;;;;;0.33;57.59;100690.31;4995127;28;20246;-78
2024/01/11 10:18:41;;;;;;;31.02;16.10;;;;;;;0.26;58.16;100686.03;4994237;28;20532;-78
2024/01/11 10:21:09;;;;;;;31.17;17.42;;;;;;;0.30;58.37;100672.22;4977638;28;20711;-78
2024/01/11 10:23:35;;;;;;;29.58;17.55;;;;;;;0.48;58.23;100661.78;4994581;28;20252;-78
2024/01/11 10:26:02;;;;;;;20.83;14.68;;;;;;;0.65;57.94;100654.81;4994965;28;20286;-78
2024/01/11 10:28:28;;;;;;;27.98;15.80;;;;;;;0.81;57.79;100653.00;4994524;28;20249;-79
2024/01/11 10:30:54;;;;;;;29.13;17.80;;;;;;;0.92;57.48;100652.91;4994380;28;20715;-78
2024/01/11 10:33:23;;;;;;;31.35;19.27;;;;;;;0.94;57.56;100656.34;4993957;28;20211;-78
2024/01/11 10:35:49;;;;;;;31.13;18.48;;;;;;;0.94;57.62;100652.88;4993424;28;20639;-78
2024/01/11 10:38:16;;;;;;;39.35;22.88;;;;;;;0.80;58.28;100648.69;4989993;28;20608;-80
2024/01/11 10:40:42;;;;;;;31.55;19.20;;;;;;;0.71;58.69;100645.31;4974805;28;20238;-78
2024/01/11 10:43:13;;;;;;;21.33;15.40;;;;;;;0.57;58.94;100646.25;4992859;28;20298;-79
2024/01/11 10:45:38;;;;;;;28.85;17.00;;;;;;;0.51;59.52;100645.41;4991842;28;20600;-79
2024/01/11 10:48:12;;;;;;;30.20;19.70;;;;;;;0.47;59.51;100638.56;4989361;28;20211;-79
2024/01/11 10:50:42;;;;;;;28.42;16.33;;;;;;;0.41;59.62;100639.47;4994283;28;20226;-79
2024/01/11 10:53:10;;;;;;;27.55;16.60;;;;;;;0.28;59.74;100637.81;4993678;28;20639;-78
2024/01/11 10:55:37;;;;;;;30.02;16.55;;;;;;;0.10;60.04;100631.00;4991471;28;20229;-79
2024/01/11 10:58:03;;;;;;;23.55;16.15;;;;;;;-0.06;60.32;100645.69;4974742;28;20238;-80
2024/01/11 11:00:29;;;;;;;31.38;20.15;;;;;;;-0.14;61.10;100643.13;4995324;28;20221;-78
2024/01/11 11:02:55;;;;;;;29.92;19.00;;;;;;;-0.17;60.92;100640.56;4992890;28;20552;-78
2024/01/11 11:05:22;;;;;;;21.67;16.45;;;;;;;-0.24;61.40;100637.16;4976267;28;20602;-80
2024/01/11 11:07:52;;;;;;;33.00;20.35;;;;;;;-0.38;61.77;100654.38;4992498;28;20486;-77